Caldercruix, United Kingdom
Current Conditions -  °F | °C
As of 1:20 AM on Sunday 23 Nov 2014 (Local Time) from EGPF Reporting Station
Broken Clouds Broken Clouds  
Wind Chill: 38°   Ceiling: 4700
Heat Index: 41°   Visibility: 6mi
Dew Point: 39°   Wind: 5mph
Humidity: 93%   Direction: 250°WSW
Pressure: 29.97"   Gusts: NA
Location:  55.89°N, 3.89°W
Report Text: EGPF 230120Z AUTO 25004KT 9999 SCT032 BKN047 05/04 Q1015 RERA
Loading
Personal Weather Stations






























Interactive Weather Map New forecast layout! Learn more

10-Day Weather Forecast

Advertisements
Track Severe Weather on mobile